Time;durP1;ratioP1;P1;durP2;ratioP2;P2;SDS_P1;SDS_P2;PMS_P1;PMS_P2;Temp;Humidity;BMP_temperature;BMP_pressure;BME280_temperature;BME280_humidity;BME280_pressure;Samples;Min_cycle;Max_cycle;Signal;HPM_P1;HPM_P2
2021/11/22 00:01:14;;;;;;;;;9.25;7.50;;;;;;;;5038131;28;45531;-81
2021/11/22 00:03:39;;;;;;;;;8.75;7.00;;;;;;;;5038381;28;45351;-79
2021/11/22 00:06:04;;;;;;;;;8.75;8.25;;;;;;;;5038615;28;46227;-80
2021/11/22 00:08:30;;;;;;;;;8.00;8.00;;;;;;;;5021053;28;45757;-80
2021/11/22 00:10:55;;;;;;;;;12.25;9.25;;;;;;;;5037958;28;47678;-80
2021/11/22 00:13:21;;;;;;;;;10.25;5.25;;;;;;;;5038061;28;45505;-80
2021/11/22 00:15:46;;;;;;;;;7.00;7.00;;;;;;;;5037783;28;46288;-81
2021/11/22 00:18:12;;;;;;;;;7.25;7.25;;;;;;;;5037843;28;45397;-81
2021/11/22 00:20:37;;;;;;;;;9.00;8.25;;;;;;;;5038191;28;45845;-81
2021/11/22 00:23:02;;;;;;;;;8.75;8.75;;;;;;;;5019683;28;45504;-80
2021/11/22 00:25:28;;;;;;;;;8.75;6.75;;;;;;;;5037496;28;46097;-80
2021/11/22 00:27:53;;;;;;;;;10.00;7.25;;;;;;;;5037857;28;45433;-81
2021/11/22 00:30:18;;;;;;;;;7.50;7.50;;;;;;;;5037764;28;45375;-79
2021/11/22 00:32:45;;;;;;;;;10.25;10.00;;;;;;;;5037981;28;45528;-79
2021/11/22 00:35:11;;;;;;;;;9.00;8.00;;;;;;;;5036953;28;47481;-80
2021/11/22 00:37:38;;;;;;;;;9.75;9.00;;;;;;;;5037235;28;45396;-79
2021/11/22 00:40:04;;;;;;;;;5.00;5.00;;;;;;;;5037688;28;45517;-80
2021/11/22 00:42:30;;;;;;;;;6.75;6.75;;;;;;;;5019346;28;45369;-80
2021/11/22 00:44:56;;;;;;;;;7.25;7.25;;;;;;;;5037575;28;46103;-79
2021/11/22 00:47:22;;;;;;;;;7.75;7.75;;;;;;;;5037002;28;45450;-78
2021/11/22 00:49:47;;;;;;;;;7.50;7.50;;;;;;;;5036951;28;45449;-80
2021/11/22 00:52:12;;;;;;;;;10.00;9.50;;;;;;;;5018233;28;45421;-79
2021/11/22 00:54:38;;;;;;;;;9.00;8.00;;;;;;;;5037238;28;46057;-80
2021/11/22 00:57:03;;;;;;;;;7.00;7.00;;;;;;;;5019397;28;46123;-79
2021/11/22 00:59:29;;;;;;;;;8.25;7.50;;;;;;;;5037634;28;45757;-79
2021/11/22 01:01:54;;;;;;;;;9.50;8.00;;;;;;;;5036961;28;45462;-80
2021/11/22 01:04:20;;;;;;;;;7.50;4.75;;;;;;;;5036227;28;46962;-80
2021/11/22 01:06:46;;;;;;;;;12.25;9.50;;;;;;;;5036780;28;45630;-78
2021/11/22 01:09:11;;;;;;;;;9.75;7.50;;;;;;;;5037084;28;45510;-77
2021/11/22 01:11:37;;;;;;;;;9.00;8.00;;;;;;;;5037422;28;45377;-77
2021/11/22 01:14:02;;;;;;;;;10.00;9.25;;;;;;;;5036507;28;45422;-76
2021/11/22 01:16:30;;;;;;;;;8.00;8.00;;;;;;;;5036225;28;45491;-77
2021/11/22 01:18:55;;;;;;;;;8.00;6.75;;;;;;;;5036489;28;45308;-77
2021/11/22 01:21:20;;;;;;;;;8.00;8.00;;;;;;;;5018767;28;45376;-77
2021/11/22 01:23:46;;;;;;;;;10.25;7.75;;;;;;;;5037413;28;45438;-77
2021/11/22 01:26:11;;;;;;;;;8.25;8.00;;;;;;;;5037051;28;45459;-77
2021/11/22 01:28:36;;;;;;;;;7.75;7.50;;;;;;;;5036701;28;45375;-76
2021/11/22 01:31:01;;;;;;;;;8.00;5.25;;;;;;;;5036446;28;45390;-78
2021/11/22 01:33:27;;;;;;;;;9.25;8.00;;;;;;;;5036087;28;46054;-76
2021/11/22 01:35:52;;;;;;;;;7.00;7.00;;;;;;;;5036710;28;45406;-76
2021/11/22 01:38:18;;;;;;;;;10.50;7.25;;;;;;;;5036022;28;45448;-78
2021/11/22 01:40:43;;;;;;;;;9.00;5.00;;;;;;;;5036083;28;45448;-78
2021/11/22 01:43:10;;;;;;;;;8.50;7.25;;;;;;;;5035783;28;47680;-78
2021/11/22 01:45:37;;;;;;;;;6.75;5.75;;;;;;;;5035973;28;45550;-78
2021/11/22 01:48:02;;;;;;;;;6.75;6.75;;;;;;;;5036085;28;45403;-79
2021/11/22 01:50:28;;;;;;;;;6.75;5.00;;;;;;;;5036605;28;45344;-77
2021/11/22 01:52:54;;;;;;;;;8.75;7.25;;;;;;;;5035847;28;46482;-77
2021/11/22 01:55:21;;;;;;;;;8.75;7.00;;;;;;;;5035734;28;45802;-77
2021/11/22 01:57:47;;;;;;;;;7.75;7.25;;;;;;;;5036244;28;45355;-77
2021/11/22 02:00:18;;;;;;;;;10.00;6.50;;;;;;;;5036007;28;45451;-77
2021/11/22 02:02:43;;;;;;;;;7.00;7.00;;;;;;;;5035983;28;45458;-78
2021/11/22 02:05:09;;;;;;;;;10.50;5.00;;;;;;;;5035299;28;45285;-77
2021/11/22 02:07:34;;;;;;;;;7.75;5.75;;;;;;;;5035780;28;45391;-77
2021/11/22 02:10:00;;;;;;;;;8.25;5.00;;;;;;;;5035843;28;45368;-78
2021/11/22 02:12:25;;;;;;;;;9.75;7.75;;;;;;;;5035656;28;46268;-78
2021/11/22 02:14:50;;;;;;;;;8.00;5.25;;;;;;;;5036108;28;45524;-78
2021/11/22 02:17:15;;;;;;;;;5.50;5.50;;;;;;;;5035397;28;45412;-78
2021/11/22 02:19:51;;;;;;;;;8.50;7.00;;;;;;;;5035314;28;45449;-78
2021/11/22 02:22:16;;;;;;;;;6.75;5.00;;;;;;;;5035358;28;46162;-78
2021/11/22 02:24:43;;;;;;;;;10.75;7.25;;;;;;;;5017649;28;45437;-76
2021/11/22 02:27:08;;;;;;;;;9.25;8.75;;;;;;;;5035363;28;45593;-77
2021/11/22 02:29:34;;;;;;;;;6.50;5.25;;;;;;;;5035825;28;45290;-76
2021/11/22 02:31:59;;;;;;;;;12.25;8.75;;;;;;;;5035110;28;47077;-77
2021/11/22 02:34:24;;;;;;;;;7.00;6.75;;;;;;;;5035110;28;45528;-77
2021/11/22 02:36:50;;;;;;;;;14.00;9.75;;;;;;;;5035354;28;45265;-77
2021/11/22 02:39:15;;;;;;;;;5.25;5.25;;;;;;;;5035373;28;45656;-77
2021/11/22 02:41:41;;;;;;;;;6.50;6.50;;;;;;;;5035900;28;46630;-76
2021/11/22 02:44:06;;;;;;;;;8.75;7.00;;;;;;;;5035197;28;45284;-77
2021/11/22 02:46:32;;;;;;;;;10.00;9.25;;;;;;;;5034898;28;45253;-77
2021/11/22 02:48:57;;;;;;;;;10.00;5.25;;;;;;;;5035296;28;45364;-77
2021/11/22 02:51:22;;;;;;;;;10.50;8.50;;;;;;;;5034994;28;47090;-77
2021/11/22 02:53:56;;;;;;;;;9.00;8.00;;;;;;;;5035796;28;45445;-77
2021/11/22 02:56:21;;;;;;;;;9.00;9.00;;;;;;;;5034842;28;45236;-77
2021/11/22 02:58:46;;;;;;;;;8.25;8.25;;;;;;;;5035180;28;45461;-77
2021/11/22 03:01:11;;;;;;;;;10.25;9.25;;;;;;;;5034573;28;46956;-78
2021/11/22 03:03:37;;;;;;;;;7.75;7.75;;;;;;;;5034926;28;45266;-76
2021/11/22 03:06:04;;;;;;;;;8.25;5.25;;;;;;;;5035305;28;45227;-77
2021/11/22 03:08:29;;;;;;;;;7.75;7.75;;;;;;;;5035125;28;45416;-77
2021/11/22 03:10:54;;;;;;;;;8.50;7.50;;;;;;;;5034872;28;45522;-77
2021/11/22 03:13:19;;;;;;;;;8.25;7.00;;;;;;;;5034931;28;45313;-77
2021/11/22 03:15:45;;;;;;;;;11.75;9.75;;;;;;;;5034212;28;45404;-76
2021/11/22 03:18:10;;;;;;;;;12.00;8.00;;;;;;;;5034095;28;45298;-78
2021/11/22 03:20:35;;;;;;;;;8.00;7.00;;;;;;;;5034999;28;45416;-77
2021/11/22 03:23:01;;;;;;;;;11.50;7.25;;;;;;;;5034252;28;45476;-77
2021/11/22 03:25:30;;;;;;;;;11.25;10.00;;;;;;;;5016650;28;45365;-77
2021/11/22 03:27:56;;;;;;;;;9.25;7.50;;;;;;;;5034362;28;46351;-77
2021/11/22 03:30:21;;;;;;;;;12.00;9.00;;;;;;;;5035825;28;46079;-77
2021/11/22 03:32:46;;;;;;;;;11.25;8.25;;;;;;;;5035506;28;45482;-78
2021/11/22 03:35:13;;;;;;;;;8.50;8.00;;;;;;;;5034430;28;45382;-78
2021/11/22 03:37:38;;;;;;;;;10.50;7.25;;;;;;;;5034291;28;45487;-78
2021/11/22 03:40:05;;;;;;;;;10.75;10.00;;;;;;;;5034171;28;47095;-78
2021/11/22 03:42:38;;;;;;;;;12.25;8.25;;;;;;;;5034460;28;45363;-78
2021/11/22 03:45:05;;;;;;;;;9.00;8.50;;;;;;;;5034399;28;45446;-77
2021/11/22 03:47:31;;;;;;;;;10.75;10.00;;;;;;;;5034746;28;45559;-78
2021/11/22 03:49:56;;;;;;;;;13.25;10.00;;;;;;;;5034346;28;46186;-77
2021/11/22 03:52:21;;;;;;;;;7.25;7.25;;;;;;;;5034316;28;45579;-78
2021/11/22 03:54:46;;;;;;;;;9.00;9.00;;;;;;;;5034591;28;45424;-76
2021/11/22 03:57:12;;;;;;;;;12.00;8.00;;;;;;;;5034308;28;45295;-77
2021/11/22 03:59:37;;;;;;;;;16.50;10.50;;;;;;;;5034313;28;45285;-78
2021/11/22 04:02:02;;;;;;;;;10.75;9.50;;;;;;;;5034281;28;45279;-77
2021/11/22 04:04:28;;;;;;;;;9.25;8.25;;;;;;;;5016917;28;45903;-78
2021/11/22 04:06:53;;;;;;;;;9.00;7.75;;;;;;;;5034273;28;45492;-78
2021/11/22 04:09:18;;;;;;;;;11.75;9.00;;;;;;;;5016403;28;47123;-78
2021/11/22 04:11:43;;;;;;;;;9.00;8.00;;;;;;;;5034690;28;45412;-77
2021/11/22 04:14:09;;;;;;;;;14.25;12.25;;;;;;;;5034099;28;45264;-77
2021/11/22 04:16:34;;;;;;;;;7.50;7.50;;;;;;;;5034195;28;45607;-77
2021/11/22 04:19:00;;;;;;;;;12.25;8.25;;;;;;;;5033860;28;45604;-77
2021/11/22 04:21:25;;;;;;;;;14.50;9.50;;;;;;;;5033973;28;45503;-78
2021/11/22 04:23:52;;;;;;;;;9.25;8.00;;;;;;;;5035005;28;45588;-77
2021/11/22 04:26:18;;;;;;;;;10.75;9.50;;;;;;;;5033940;28;45588;-77
2021/11/22 04:28:44;;;;;;;;;15.00;12.25;;;;;;;;5036529;28;45439;-77
2021/11/22 04:31:09;;;;;;;;;16.50;14.00;;;;;;;;5019304;28;46040;-78
2021/11/22 04:33:36;;;;;;;;;7.75;7.00;;;;;;;;5037703;28;45502;-77
2021/11/22 04:36:01;;;;;;;;;9.00;8.75;;;;;;;;5037222;28;45407;-78
2021/11/22 04:38:27;;;;;;;;;9.75;9.75;;;;;;;;5019266;28;47294;-78
2021/11/22 04:40:52;;;;;;;;;15.25;9.50;;;;;;;;5037292;28;45439;-77
2021/11/22 04:43:17;;;;;;;;;13.50;9.25;;;;;;;;5036626;28;45472;-76
2021/11/22 04:45:42;;;;;;;;;12.00;9.00;;;;;;;;5037015;28;45332;-76
2021/11/22 04:48:08;;;;;;;;;12.75;7.75;;;;;;;;5036829;28;46276;-76
2021/11/22 04:50:34;;;;;;;;;11.75;11.75;;;;;;;;5035154;28;45293;-77
2021/11/22 04:53:01;;;;;;;;;14.25;9.00;;;;;;;;5036527;28;45358;-78
2021/11/22 04:55:26;;;;;;;;;14.00;11.25;;;;;;;;5036680;28;45646;-78
2021/11/22 04:57:52;;;;;;;;;19.00;14.00;;;;;;;;5036288;28;45382;-78
2021/11/22 05:00:18;;;;;;;;;9.00;9.00;;;;;;;;5036948;28;45305;-78
2021/11/22 05:02:45;;;;;;;;;9.00;9.00;;;;;;;;5037204;28;45304;-78
2021/11/22 05:05:11;;;;;;;;;12.25;10.25;;;;;;;;5036190;28;45494;-76
2021/11/22 05:07:37;;;;;;;;;13.00;9.00;;;;;;;;5035843;28;45530;-79
2021/11/22 05:10:03;;;;;;;;;15.50;12.00;;;;;;;;5035949;28;49264;-76
2021/11/22 05:12:28;;;;;;;;;8.75;8.50;;;;;;;;5036031;28;45360;-78
2021/11/22 05:14:53;;;;;;;;;13.75;9.50;;;;;;;;5036970;28;45277;-77
2021/11/22 05:17:19;;;;;;;;;13.50;12.25;;;;;;;;5036081;28;48718;-78
2021/11/22 05:19:44;;;;;;;;;12.75;12.00;;;;;;;;5035807;28;45521;-77
2021/11/22 05:22:12;;;;;;;;;14.00;13.00;;;;;;;;5036083;28;45601;-75
2021/11/22 05:24:37;;;;;;;;;15.50;14.50;;;;;;;;5036259;28;45467;-77
2021/11/22 05:27:04;;;;;;;;;17.75;13.75;;;;;;;;5035766;28;45473;-79
2021/11/22 05:29:29;;;;;;;;;14.75;14.75;;;;;;;;5036171;28;45507;-78
2021/11/22 05:31:55;;;;;;;;;16.50;13.25;;;;;;;;5035584;28;45357;-79
2021/11/22 05:34:20;;;;;;;;;16.25;11.75;;;;;;;;5035399;28;45644;-77
2021/11/22 05:36:45;;;;;;;;;18.00;12.75;;;;;;;;5035660;28;47204;-77
2021/11/22 05:39:11;;;;;;;;;19.75;15.75;;;;;;;;5034605;28;45296;-78
2021/11/22 05:41:37;;;;;;;;;13.00;13.00;;;;;;;;5036080;28;45364;-78
2021/11/22 05:44:02;;;;;;;;;14.00;14.00;;;;;;;;5035346;28;45478;-78
2021/11/22 05:46:27;;;;;;;;;14.25;13.25;;;;;;;;5034910;28;46892;-77
2021/11/22 05:48:53;;;;;;;;;16.50;13.00;;;;;;;;5017352;28;45649;-77
2021/11/22 05:51:19;;;;;;;;;13.25;12.75;;;;;;;;5035198;28;45477;-79
2021/11/22 05:53:48;;;;;;;;;16.25;15.00;;;;;;;;5036057;28;46681;-77
2021/11/22 05:56:15;;;;;;;;;16.50;13.50;;;;;;;;5034821;28;46957;-78
2021/11/22 05:58:41;;;;;;;;;20.50;17.00;;;;;;;;5035204;28;45394;-78
2021/11/22 06:01:06;;;;;;;;;19.75;16.00;;;;;;;;5035084;28;45409;-76
2021/11/22 06:03:32;;;;;;;;;17.00;15.50;;;;;;;;5035338;28;45428;-79
2021/11/22 06:05:57;;;;;;;;;18.75;15.00;;;;;;;;5035167;28;46053;-79
2021/11/22 06:08:23;;;;;;;;;23.00;15.50;;;;;;;;5035312;28;45503;-76
2021/11/22 06:10:49;;;;;;;;;21.75;17.50;;;;;;;;5035472;28;45296;-79
2021/11/22 06:13:15;;;;;;;;;21.75;19.75;;;;;;;;5034980;28;45577;-78
2021/11/22 06:15:40;;;;;;;;;21.75;18.50;;;;;;;;5034858;28;46243;-79
2021/11/22 06:18:06;;;;;;;;;20.50;17.50;;;;;;;;5034884;28;45510;-78
2021/11/22 06:20:31;;;;;;;;;22.50;15.75;;;;;;;;5035406;28;45397;-80
2021/11/22 06:22:57;;;;;;;;;19.00;17.50;;;;;;;;5016072;28;45523;-81
2021/11/22 06:25:22;;;;;;;;;23.25;19.00;;;;;;;;5034573;28;45348;-79
2021/11/22 06:27:47;;;;;;;;;19.50;19.00;;;;;;;;5034810;28;45433;-81
2021/11/22 06:30:12;;;;;;;;;23.75;21.75;;;;;;;;5035560;28;45402;-80
2021/11/22 06:32:38;;;;;;;;;25.75;22.50;;;;;;;;5035817;28;45407;-81
2021/11/22 06:35:04;;;;;;;;;24.00;22.25;;;;;;;;5015802;28;46265;-80
2021/11/22 06:37:33;;;;;;;;;23.00;20.50;;;;;;;;5033867;28;45510;-81
2021/11/22 06:39:58;;;;;;;;;18.00;16.50;;;;;;;;5035116;28;45237;-80
2021/11/22 06:42:24;;;;;;;;;20.50;14.75;;;;;;;;5034825;28;45435;-82
2021/11/22 06:44:49;;;;;;;;;22.00;20.50;;;;;;;;5016988;28;46234;-80
2021/11/22 06:47:14;;;;;;;;;26.25;22.00;;;;;;;;5034256;28;45289;-80
2021/11/22 06:49:40;;;;;;;;;22.50;20.25;;;;;;;;5034348;28;45408;-81
2021/11/22 06:52:05;;;;;;;;;19.50;15.00;;;;;;;;5034211;28;45417;-79
2021/11/22 06:54:31;;;;;;;;;22.00;18.00;;;;;;;;5034501;28;46153;-80
2021/11/22 06:56:56;;;;;;;;;22.50;21.00;;;;;;;;5035178;28;45234;-80
2021/11/22 06:59:22;;;;;;;;;21.25;18.50;;;;;;;;5034546;28;45477;-81
2021/11/22 07:01:47;;;;;;;;;20.75;17.75;;;;;;;;5034703;28;45462;-81
2021/11/22 07:04:13;;;;;;;;;18.50;14.50;;;;;;;;5034397;28;45674;-80
2021/11/22 07:06:38;;;;;;;;;18.00;16.75;;;;;;;;5034595;28;47695;-78
2021/11/22 07:09:04;;;;;;;;;24.00;18.25;;;;;;;;5035133;28;45367;-81
2021/11/22 07:11:29;;;;;;;;;19.75;17.00;;;;;;;;5035319;28;45264;-81
2021/11/22 07:13:55;;;;;;;;;22.00;18.25;;;;;;;;5034655;28;45408;-81
2021/11/22 07:16:21;;;;;;;;;17.75;16.50;;;;;;;;5034021;28;45527;-78
2021/11/22 07:18:46;;;;;;;;;17.50;16.50;;;;;;;;5034401;28;45454;-78
2021/11/22 07:21:11;;;;;;;;;20.25;16.00;;;;;;;;5033872;28;45332;-79
2021/11/22 07:23:37;;;;;;;;;20.00;17.75;;;;;;;;5034873;28;45426;-78
2021/11/22 07:26:03;;;;;;;;;26.50;23.25;;;;;;;;5035787;28;45295;-83
2021/11/22 07:28:28;;;;;;;;;18.00;16.75;;;;;;;;5035170;28;45490;-81
2021/11/22 07:30:54;;;;;;;;;15.25;15.00;;;;;;;;5034580;28;50068;-80
2021/11/22 07:33:19;;;;;;;;;16.00;16.00;;;;;;;;5017969;28;46215;-80
2021/11/22 07:35:45;;;;;;;;;18.50;18.50;;;;;;;;5037411;28;45360;-79
2021/11/22 07:38:10;;;;;;;;;17.00;15.00;;;;;;;;5040165;28;45470;-80
2021/11/22 07:40:37;;;;;;;;;19.50;15.00;;;;;;;;5043004;28;45967;-80
2021/11/22 07:43:02;;;;;;;;;20.75;14.25;;;;;;;;5042977;28;45507;-82
2021/11/22 07:45:28;;;;;;;;;19.50;17.25;;;;;;;;5039109;28;45511;-81
2021/11/22 07:47:53;;;;;;;;;14.75;12.25;;;;;;;;5043796;28;45461;-80
2021/11/22 07:50:19;;;;;;;;;19.50;17.25;;;;;;;;5044252;28;45365;-79
2021/11/22 07:52:45;;;;;;;;;22.25;21.25;;;;;;;;5044968;28;46116;-81
2021/11/22 07:55:10;;;;;;;;;15.50;11.25;;;;;;;;5045399;28;45335;-79
2021/11/22 07:57:36;;;;;;;;;15.25;12.00;;;;;;;;5045853;28;44828;-81
2021/11/22 08:00:02;;;;;;;;;25.00;21.00;;;;;;;;5046272;28;45291;-81
2021/11/22 08:02:27;;;;;;;;;18.00;15.25;;;;;;;;5043676;28;46413;-80
2021/11/22 08:04:53;;;;;;;;;17.75;16.25;;;;;;;;5041474;28;45410;-80
2021/11/22 08:07:20;;;;;;;;;20.25;18.25;;;;;;;;5036708;28;45296;-81
2021/11/22 08:12:39;;;;;;;;;22.00;15.75;;;;;;;;4980422;28;46412;-81
2021/11/22 08:15:13;;;;;;;;;16.50;13.75;;;;;;;;4994970;28;45626;-80
2021/11/22 08:17:39;;;;;;;;;14.50;14.50;;;;;;;;4994670;28;45534;-79
2021/11/22 08:20:05;;;;;;;;;19.25;16.75;;;;;;;;4994150;28;45630;-81
2021/11/22 08:22:31;;;;;;;;;13.00;10.75;;;;;;;;4994902;28;46327;-81
2021/11/22 08:24:56;;;;;;;;;16.25;12.00;;;;;;;;4979058;28;45386;-81
2021/11/22 08:27:23;;;;;;;;;16.75;12.50;;;;;;;;4979088;28;45315;-81
2021/11/22 08:29:49;;;;;;;;;18.50;14.25;;;;;;;;4997168;28;45575;-80
2021/11/22 08:32:15;;;;;;;;;17.00;13.25;;;;;;;;4994429;28;46152;-80
2021/11/22 08:34:40;;;;;;;;;14.25;13.75;;;;;;;;4993323;28;45457;-80
2021/11/22 08:37:05;;;;;;;;;15.00;13.75;;;;;;;;4993849;28;45449;-78
2021/11/22 08:39:30;;;;;;;;;14.00;12.00;;;;;;;;4994943;28;45318;-80
2021/11/22 08:41:56;;;;;;;;;10.00;9.75;;;;;;;;4996318;28;48046;-80
2021/11/22 08:44:21;;;;;;;;;13.25;10.00;;;;;;;;4998602;28;44946;-79
2021/11/22 08:46:47;;;;;;;;;11.75;11.75;;;;;;;;4994012;28;45521;-80
2021/11/22 08:49:13;;;;;;;;;10.50;10.50;;;;;;;;5011214;28;45294;-80
2021/11/22 08:51:39;;;;;;;;;12.75;10.50;;;;;;;;5035565;28;46648;-80
2021/11/22 08:54:04;;;;;;;;;11.75;11.75;;;;;;;;5035437;28;45269;-80
2021/11/22 08:56:29;;;;;;;;;14.75;12.00;;;;;;;;5037080;28;45387;-80
2021/11/22 08:58:55;;;;;;;;;9.00;9.00;;;;;;;;5037439;28;45333;-80
2021/11/22 09:01:20;;;;;;;;;10.25;10.25;;;;;;;;5036832;28;46125;-80
2021/11/22 09:03:45;;;;;;;;;10.50;10.50;;;;;;;;5037573;28;45561;-81
2021/11/22 09:06:11;;;;;;;;;10.75;10.00;;;;;;;;5036208;28;45341;-80
2021/11/22 09:08:36;;;;;;;;;10.75;10.75;;;;;;;;5036190;28;45305;-81
2021/11/22 09:11:01;;;;;;;;;7.25;6.00;;;;;;;;5035719;28;45291;-81
2021/11/22 09:13:27;;;;;;;;;10.00;10.00;;;;;;;;5035016;28;45310;-80
2021/11/22 09:15:52;;;;;;;;;17.75;13.25;;;;;;;;5036214;28;45868;-80
2021/11/22 09:18:17;;;;;;;;;12.50;11.50;;;;;;;;5035200;28;45569;-80
2021/11/22 09:20:42;;;;;;;;;18.25;11.00;;;;;;;;5035559;28;46491;-79
2021/11/22 09:23:08;;;;;;;;;18.00;9.00;;;;;;;;5035088;28;45394;-79
2021/11/22 09:25:35;;;;;;;;;8.00;8.00;;;;;;;;5035051;28;45493;-80
2021/11/22 09:28:00;;;;;;;;;8.00;8.00;;;;;;;;5034868;28;45417;-80
2021/11/22 09:30:25;;;;;;;;;8.25;8.25;;;;;;;;5034691;28;45944;-80
2021/11/22 09:32:50;;;;;;;;;10.50;8.00;;;;;;;;5034541;28;45519;-79
2021/11/22 09:35:16;;;;;;;;;11.75;10.00;;;;;;;;5034326;28;45497;-80
2021/11/22 09:37:41;;;;;;;;;10.00;9.50;;;;;;;;5034437;28;45331;-80
2021/11/22 09:40:08;;;;;;;;;13.50;11.25;;;;;;;;5034707;28;46636;-79
2021/11/22 09:42:34;;;;;;;;;9.25;9.00;;;;;;;;5034706;28;45396;-80
2021/11/22 09:44:59;;;;;;;;;11.00;9.75;;;;;;;;5034716;28;45400;-79
2021/11/22 09:47:25;;;;;;;;;12.25;8.50;;;;;;;;5035134;28;45234;-81
2021/11/22 09:49:56;;;;;;;;;9.00;8.25;;;;;;;;5035052;28;46506;-80
2021/11/22 09:52:22;;;;;;;;;11.25;9.00;;;;;;;;5038607;28;44721;-81
2021/11/22 09:54:47;;;;;;;;;10.75;10.75;;;;;;;;5038032;28;45476;-79
2021/11/22 09:57:13;;;;;;;;;10.75;9.50;;;;;;;;5036687;28;45443;-81
2021/11/22 09:59:38;;;;;;;;;6.75;6.75;;;;;;;;5035597;28;46040;-80
2021/11/22 10:02:03;;;;;;;;;7.75;7.75;;;;;;;;5034574;28;45284;-80
2021/11/22 10:04:30;;;;;;;;;8.00;7.00;;;;;;;;5034042;28;45325;-80
2021/11/22 10:06:55;;;;;;;;;8.25;8.25;;;;;;;;5034258;28;45504;-79
2021/11/22 10:09:41;;;;;;;;;6.00;5.50;;;;;;;;5034305;28;46289;-80
2021/11/22 10:12:11;;;;;;;;;10.00;9.00;;;;;;;;5034273;28;45345;-80
2021/11/22 10:14:40;;;;;;;;;5.25;4.25;;;;;;;;5032926;28;45248;-80
2021/11/22 10:17:26;;;;;;;;;6.50;6.50;;;;;;;;5034324;28;45307;-79
2021/11/22 10:20:06;;;;;;;;;8.50;6.25;;;;;;;;5033801;28;47085;-80
2021/11/22 10:22:39;;;;;;;;;3.00;3.00;;;;;;;;5033271;28;45303;-79
2021/11/22 10:25:22;;;;;;;;;9.25;8.00;;;;;;;;5016020;28;45424;-79
2021/11/22 10:27:47;;;;;;;;;10.00;9.00;;;;;;;;5034225;28;45377;-79
2021/11/22 10:30:19;;;;;;;;;9.00;6.00;;;;;;;;5033833;28;45661;-80
2021/11/22 10:32:44;;;;;;;;;6.25;6.00;;;;;;;;5034465;28;45376;-79
2021/11/22 10:35:13;;;;;;;;;6.00;4.75;;;;;;;;5033625;28;45324;-80
2021/11/22 10:37:57;;;;;;;;;9.25;7.25;;;;;;;;5034071;28;45410;-80
2021/11/22 10:40:22;;;;;;;;;10.25;8.75;;;;;;;;5034389;28;47197;-80
2021/11/22 10:42:48;;;;;;;;;7.25;7.25;;;;;;;;5040071;28;45284;-80
2021/11/22 10:45:27;;;;;;;;;4.75;4.75;;;;;;;;5038472;28;45608;-79
2021/11/22 10:47:56;;;;;;;;;11.00;9.50;;;;;;;;5031051;28;45385;-81
2021/11/22 10:50:24;;;;;;;;;13.50;10.00;;;;;;;;5033773;28;46215;-80
2021/11/22 10:52:49;;;;;;;;;11.25;8.25;;;;;;;;5034179;28;45443;-81
2021/11/22 10:55:14;;;;;;;;;7.00;6.00;;;;;;;;5033867;28;45432;-81
2021/11/22 10:57:45;;;;;;;;;8.25;7.25;;;;;;;;5015673;28;45487;-79
2021/11/22 11:00:26;;;;;;;;;7.75;6.50;;;;;;;;5015410;28;47292;-80
2021/11/22 11:02:52;;;;;;;;;6.50;6.00;;;;;;;;5030537;28;45340;-80
2021/11/22 11:05:32;;;;;;;;;11.00;7.25;;;;;;;;5033917;28;45568;-79
2021/11/22 11:08:02;;;;;;;;;9.50;9.50;;;;;;;;5034453;28;45376;-80
2021/11/22 11:10:27;;;;;;;;;10.25;9.25;;;;;;;;5015497;28;46835;-79
2021/11/22 11:12:56;;;;;;;;;9.25;7.00;;;;;;;;5033548;28;45419;-81
2021/11/22 11:15:21;;;;;;;;;12.00;9.00;;;;;;;;5033337;28;45438;-80
2021/11/22 11:17:47;;;;;;;;;9.00;9.00;;;;;;;;5033823;28;45264;-81
2021/11/22 11:20:14;;;;;;;;;8.75;8.75;;;;;;;;5015801;28;47523;-80
2021/11/22 11:22:40;;;;;;;;;9.00;6.00;;;;;;;;5033834;28;45384;-81
2021/11/22 11:25:07;;;;;;;;;10.75;9.00;;;;;;;;5033848;28;45303;-80
2021/11/22 11:27:33;;;;;;;;;6.50;5.25;;;;;;;;5035037;28;45426;-80
2021/11/22 11:29:58;;;;;;;;;11.50;8.75;;;;;;;;5034763;28;46303;-81
2021/11/22 11:32:25;;;;;;;;;9.00;9.00;;;;;;;;5033711;28;45249;-78
2021/11/22 11:34:51;;;;;;;;;9.25;9.25;;;;;;;;5033184;28;45581;-79
2021/11/22 11:37:24;;;;;;;;;9.75;8.00;;;;;;;;5034095;28;45587;-80
2021/11/22 11:40:02;;;;;;;;;11.75;9.50;;;;;;;;5036258;28;47098;-80
2021/11/22 11:42:49;;;;;;;;;10.50;9.25;;;;;;;;5020939;28;45286;-80
2021/11/22 11:45:29;;;;;;;;;7.75;6.75;;;;;;;;5035933;28;45562;-80
2021/11/22 11:48:05;;;;;;;;;9.75;8.75;;;;;;;;5033158;28;45393;-80
2021/11/22 11:50:33;;;;;;;;;11.50;10.50;;;;;;;;5035398;28;46143;-80
2021/11/22 11:53:04;;;;;;;;;9.25;9.25;;;;;;;;5035475;28;45388;-80
2021/11/22 11:55:29;;;;;;;;;12.25;12.25;;;;;;;;5035398;28;49120;-80
2021/11/22 11:58:13;;;;;;;;;15.00;14.00;;;;;;;;5035589;28;45437;-79
2021/11/22 12:00:49;;;;;;;;;9.50;9.25;;;;;;;;5021412;28;45356;-79
2021/11/22 12:03:14;;;;;;;;;13.50;11.25;;;;;;;;5035466;28;45459;-81
2021/11/22 12:05:42;;;;;;;;;8.25;7.25;;;;;;;;5036436;28;45426;-80
2021/11/22 12:08:26;;;;;;;;;12.50;11.50;;;;;;;;5036515;28;45436;-80
2021/11/22 12:10:52;;;;;;;;;8.50;7.50;;;;;;;;5038024;28;46375;-79
2021/11/22 12:13:18;;;;;;;;;10.00;6.75;;;;;;;;5038098;28;45392;-78
2021/11/22 12:15:46;;;;;;;;;9.25;9.25;;;;;;;;5017446;28;45559;-81
2021/11/22 12:18:11;;;;;;;;;14.50;11.50;;;;;;;;5036107;28;45356;-80
2021/11/22 12:20:36;;;;;;;;;10.00;7.75;;;;;;;;5036498;28;46264;-80
2021/11/22 12:23:06;;;;;;;;;12.25;12.25;;;;;;;;5036711;28;45261;-80
2021/11/22 12:25:46;;;;;;;;;13.00;10.00;;;;;;;;5035474;28;45353;-80
2021/11/22 12:28:13;;;;;;;;;10.75;10.25;;;;;;;;5036028;28;45477;-81
2021/11/22 12:30:43;;;;;;;;;11.00;10.75;;;;;;;;5037260;28;46404;-81
2021/11/22 12:33:20;;;;;;;;;11.50;10.50;;;;;;;;5035187;28;45476;-80
2021/11/22 12:35:50;;;;;;;;;11.50;8.75;;;;;;;;5034928;28;45358;-80
2021/11/22 12:38:18;;;;;;;;;11.25;10.00;;;;;;;;5017483;28;45344;-81
2021/11/22 12:40:44;;;;;;;;;12.00;12.00;;;;;;;;5034734;28;47317;-80
2021/11/22 12:43:09;;;;;;;;;10.00;10.00;;;;;;;;5035164;28;45454;-79
2021/11/22 12:45:53;;;;;;;;;8.25;8.25;;;;;;;;5035093;28;45376;-80
2021/11/22 12:48:30;;;;;;;;;13.25;9.25;;;;;;;;5035054;28;45318;-80
2021/11/22 12:50:56;;;;;;;;;14.25;13.00;;;;;;;;5031532;28;46278;-80
2021/11/22 12:53:21;;;;;;;;;8.50;8.25;;;;;;;;5038235;28;45297;-80
2021/11/22 12:55:48;;;;;;;;;6.50;6.25;;;;;;;;5039518;28;45314;-80
2021/11/22 12:58:21;;;;;;;;;11.00;8.00;;;;;;;;5036761;28;45501;-80
2021/11/22 13:00:46;;;;;;;;;20.75;20.50;;;;;;;;5036075;28;46010;-79
2021/11/22 13:03:16;;;;;;;;;12.00;11.25;;;;;;;;5035510;28;45452;-80
2021/11/22 13:05:41;;;;;;;;;9.50;9.50;;;;;;;;5036215;28;45395;-80
2021/11/22 13:08:27;;;;;;;;;15.25;10.25;;;;;;;;5035362;28;45463;-80
2021/11/22 13:11:01;;;;;;;;;10.00;10.00;;;;;;;;5009766;28;48436;-80
2021/11/22 13:13:30;;;;;;;;;12.25;11.75;;;;;;;;5035399;28;45277;-80
2021/11/22 13:16:00;;;;;;;;;15.00;11.50;;;;;;;;5035513;28;45367;-80
2021/11/22 13:18:27;;;;;;;;;13.25;11.00;;;;;;;;5019989;28;45363;-79
2021/11/22 13:20:53;;;;;;;;;10.75;9.50;;;;;;;;5016396;28;46445;-79
2021/11/22 13:23:20;;;;;;;;;11.25;9.75;;;;;;;;5035218;28;45300;-80
2021/11/22 13:25:46;;;;;;;;;11.75;9.75;;;;;;;;5034622;28;45252;-79
2021/11/22 13:28:15;;;;;;;;;13.25;12.00;;;;;;;;5035396;28;45273;-79
2021/11/22 13:30:40;;;;;;;;;13.25;10.75;;;;;;;;5035370;28;46304;-80
2021/11/22 13:33:06;;;;;;;;;11.25;11.25;;;;;;;;5035300;28;45412;-81
2021/11/22 13:35:32;;;;;;;;;10.00;10.00;;;;;;;;5038749;28;45431;-80
2021/11/22 13:38:16;;;;;;;;;17.00;13.00;;;;;;;;5020336;28;45326;-79
2021/11/22 13:40:44;;;;;;;;;17.75;14.75;;;;;;;;5034835;28;47763;-79
2021/11/22 13:43:15;;;;;;;;;16.25;15.25;;;;;;;;5034463;28;45435;-80
2021/11/22 13:45:40;;;;;;;;;13.25;11.00;;;;;;;;5034868;28;45487;-80
2021/11/22 13:48:06;;;;;;;;;13.50;13.00;;;;;;;;5034916;28;45337;-80
2021/11/22 13:50:48;;;;;;;;;9.75;8.25;;;;;;;;5035126;28;45341;-80
2021/11/22 13:53:14;;;;;;;;;12.50;11.00;;;;;;;;5034387;28;45363;-80
2021/11/22 13:55:40;;;;;;;;;17.50;14.00;;;;;;;;5034235;28;45262;-80
2021/11/22 13:58:13;;;;;;;;;13.25;10.25;;;;;;;;5034334;28;45432;-79
2021/11/22 14:00:59;;;;;;;;;9.75;9.25;;;;;;;;5033474;28;46255;-78
2021/11/22 14:03:27;;;;;;;;;18.00;15.25;;;;;;;;5018189;28;45546;-79
2021/11/22 14:05:53;;;;;;;;;16.25;14.75;;;;;;;;5031378;28;45399;-80
2021/11/22 14:08:19;;;;;;;;;10.50;10.50;;;;;;;;5034479;28;45549;-80
2021/11/22 14:10:44;;;;;;;;;13.00;13.00;;;;;;;;5033710;28;46274;-80
2021/11/22 14:13:11;;;;;;;;;15.50;12.50;;;;;;;;5033189;28;45534;-80
2021/11/22 14:15:37;;;;;;;;;13.50;11.50;;;;;;;;5033969;28;45426;-79
2021/11/22 14:18:03;;;;;;;;;14.75;13.00;;;;;;;;5034303;28;45504;-80
2021/11/22 14:20:29;;;;;;;;;13.50;11.25;;;;;;;;5033658;28;45398;-79
2021/11/22 14:23:01;;;;;;;;;12.50;12.50;;;;;;;;5034210;28;45333;-80
2021/11/22 14:25:27;;;;;;;;;15.00;15.00;;;;;;;;5034889;28;45636;-80
2021/11/22 14:27:55;;;;;;;;;13.00;10.75;;;;;;;;5034364;28;45304;-80
2021/11/22 14:30:34;;;;;;;;;10.00;10.00;;;;;;;;5034142;28;45389;-79